sensor_id;sensor_type;location;lat;lon;timestamp;P1;durP1;ratioP1;P2;durP2;ratioP2
20232;SDS011;37438;55.674;13.074;2023-04-25T00:00:50;5.78;;;2.63;;
20232;SDS011;37438;55.674;13.074;2023-04-25T00:03:56;3.00;;;2.33;;
20232;SDS011;37438;55.674;13.074;2023-04-25T00:10:06;3.88;;;2.50;;
20232;SDS011;37438;55.674;13.074;2023-04-25T00:13:11;4.15;;;2.30;;
20232;SDS011;37438;55.674;13.074;2023-04-25T00:16:16;4.43;;;1.80;;
20232;SDS011;37438;55.674;13.074;2023-04-25T00:19:20;10.95;;;2.28;;
20232;SDS011;37438;55.674;13.074;2023-04-25T00:22:25;7.93;;;4.45;;
20232;SDS011;37438;55.674;13.074;2023-04-25T00:25:29;4.05;;;1.92;;
20232;SDS011;37438;55.674;13.074;2023-04-25T00:28:33;3.28;;;2.42;;
20232;SDS011;37438;55.674;13.074;2023-04-25T00:31:38;5.75;;;2.15;;
20232;SDS011;37438;55.674;13.074;2023-04-25T00:34:43;7.80;;;2.45;;
20232;SDS011;37438;55.674;13.074;2023-04-25T00:37:47;11.18;;;1.77;;
20232;SDS011;37438;55.674;13.074;2023-04-25T00:40:52;10.65;;;2.22;;
20232;SDS011;37438;55.674;13.074;2023-04-25T00:43:56;1.70;;;1.60;;
20232;SDS011;37438;55.674;13.074;2023-04-25T00:47:03;3.63;;;1.63;;
20232;SDS011;37438;55.674;13.074;2023-04-25T00:50:08;6.15;;;1.92;;
20232;SDS011;37438;55.674;13.074;2023-04-25T00:53:14;3.17;;;1.65;;
20232;SDS011;37438;55.674;13.074;2023-04-25T00:56:19;3.13;;;2.45;;
20232;SDS011;37438;55.674;13.074;2023-04-25T01:02:29;3.92;;;2.35;;
20232;SDS011;37438;55.674;13.074;2023-04-25T01:05:34;11.10;;;2.88;;
20232;SDS011;37438;55.674;13.074;2023-04-25T01:08:39;8.15;;;3.80;;
20232;SDS011;37438;55.674;13.074;2023-04-25T01:11:44;7.93;;;2.92;;
20232;SDS011;37438;55.674;13.074;2023-04-25T01:14:48;11.10;;;2.92;;
20232;SDS011;37438;55.674;13.074;2023-04-25T01:17:53;8.30;;;3.05;;
20232;SDS011;37438;55.674;13.074;2023-04-25T01:21:06;7.95;;;3.10;;
20232;SDS011;37438;55.674;13.074;2023-04-25T01:24:12;6.63;;;3.28;;
20232;SDS011;37438;55.674;13.074;2023-04-25T01:27:17;8.50;;;3.58;;
20232;SDS011;37438;55.674;13.074;2023-04-25T01:33:26;9.02;;;4.22;;
20232;SDS011;37438;55.674;13.074;2023-04-25T01:36:31;12.38;;;4.97;;
20232;SDS011;37438;55.674;13.074;2023-04-25T01:39:37;11.07;;;4.95;;
20232;SDS011;37438;55.674;13.074;2023-04-25T01:42:43;7.88;;;5.28;;
20232;SDS011;37438;55.674;13.074;2023-04-25T01:45:48;13.25;;;6.03;;
20232;SDS011;37438;55.674;13.074;2023-04-25T01:48:53;17.83;;;4.80;;
20232;SDS011;37438;55.674;13.074;2023-04-25T01:51:58;9.40;;;2.70;;
20232;SDS011;37438;55.674;13.074;2023-04-25T01:58:10;5.15;;;3.20;;
20232;SDS011;37438;55.674;13.074;2023-04-25T02:01:38;10.10;;;3.60;;
20232;SDS011;37438;55.674;13.074;2023-04-25T02:04:57;7.78;;;3.25;;
20232;SDS011;37438;55.674;13.074;2023-04-25T02:08:08;4.95;;;2.63;;
20232;SDS011;37438;55.674;13.074;2023-04-25T02:11:13;5.20;;;2.45;;
20232;SDS011;37438;55.674;13.074;2023-04-25T02:14:24;8.57;;;2.97;;
20232;SDS011;37438;55.674;13.074;2023-04-25T02:17:37;5.75;;;2.50;;
20232;SDS011;37438;55.674;13.074;2023-04-25T02:23:47;8.40;;;2.83;;
20232;SDS011;37438;55.674;13.074;2023-04-25T02:26:53;4.13;;;1.95;;
20232;SDS011;37438;55.674;13.074;2023-04-25T02:29:59;5.50;;;2.67;;
20232;SDS011;37438;55.674;13.074;2023-04-25T02:33:03;7.72;;;3.25;;
20232;SDS011;37438;55.674;13.074;2023-04-25T02:36:07;5.55;;;2.42;;
20232;SDS011;37438;55.674;13.074;2023-04-25T02:39:12;9.35;;;3.38;;
20232;SDS011;37438;55.674;13.074;2023-04-25T02:42:16;10.97;;;1.87;;
20232;SDS011;37438;55.674;13.074;2023-04-25T02:45:21;9.13;;;3.42;;
20232;SDS011;37438;55.674;13.074;2023-04-25T02:48:26;10.63;;;3.05;;
20232;SDS011;37438;55.674;13.074;2023-04-25T02:51:30;11.82;;;3.00;;
20232;SDS011;37438;55.674;13.074;2023-04-25T02:57:40;12.20;;;3.28;;
20232;SDS011;37438;55.674;13.074;2023-04-25T03:00:47;6.28;;;2.40;;
20232;SDS011;37438;55.674;13.074;2023-04-25T03:03:53;11.20;;;3.00;;
20232;SDS011;37438;55.674;13.074;2023-04-25T03:06:58;9.77;;;3.08;;
20232;SDS011;37438;55.674;13.074;2023-04-25T03:10:02;9.27;;;3.22;;
20232;SDS011;37438;55.674;13.074;2023-04-25T03:13:09;14.90;;;3.45;;
20232;SDS011;37438;55.674;13.074;2023-04-25T03:19:18;11.52;;;3.28;;
20232;SDS011;37438;55.674;13.074;2023-04-25T03:22:24;21.67;;;3.60;;
20232;SDS011;37438;55.674;13.074;2023-04-25T03:25:28;7.40;;;2.80;;
20232;SDS011;37438;55.674;13.074;2023-04-25T03:28:32;14.33;;;2.90;;
20232;SDS011;37438;55.674;13.074;2023-04-25T03:31:37;11.40;;;3.15;;
20232;SDS011;37438;55.674;13.074;2023-04-25T03:34:41;15.57;;;3.33;;
20232;SDS011;37438;55.674;13.074;2023-04-25T03:37:46;10.85;;;3.17;;
20232;SDS011;37438;55.674;13.074;2023-04-25T03:40:55;12.60;;;3.13;;
20232;SDS011;37438;55.674;13.074;2023-04-25T03:44:13;17.17;;;3.60;;
20232;SDS011;37438;55.674;13.074;2023-04-25T03:47:17;9.57;;;3.65;;
20232;SDS011;37438;55.674;13.074;2023-04-25T03:50:22;16.15;;;3.08;;
20232;SDS011;37438;55.674;13.074;2023-04-25T03:53:27;14.38;;;3.60;;
20232;SDS011;37438;55.674;13.074;2023-04-25T03:56:50;12.95;;;4.05;;
20232;SDS011;37438;55.674;13.074;2023-04-25T03:59:58;17.98;;;3.53;;
20232;SDS011;37438;55.674;13.074;2023-04-25T04:03:05;14.93;;;3.53;;
20232;SDS011;37438;55.674;13.074;2023-04-25T04:06:10;14.32;;;4.72;;
20232;SDS011;37438;55.674;13.074;2023-04-25T04:09:20;21.42;;;5.32;;
20232;SDS011;37438;55.674;13.074;2023-04-25T04:12:25;20.10;;;4.35;;
20232;SDS011;37438;55.674;13.074;2023-04-25T04:15:29;12.70;;;4.63;;
20232;SDS011;37438;55.674;13.074;2023-04-25T04:18:36;17.20;;;4.65;;
20232;SDS011;37438;55.674;13.074;2023-04-25T04:21:41;14.25;;;3.10;;
20232;SDS011;37438;55.674;13.074;2023-04-25T04:24:46;12.65;;;4.18;;
20232;SDS011;37438;55.674;13.074;2023-04-25T04:27:56;13.68;;;3.47;;
20232;SDS011;37438;55.674;13.074;2023-04-25T04:31:37;7.03;;;2.70;;
20232;SDS011;37438;55.674;13.074;2023-04-25T04:34:42;19.38;;;5.13;;
20232;SDS011;37438;55.674;13.074;2023-04-25T04:37:50;27.40;;;4.60;;
20232;SDS011;37438;55.674;13.074;2023-04-25T04:40:56;10.40;;;3.75;;
20232;SDS011;37438;55.674;13.074;2023-04-25T04:44:25;17.25;;;4.28;;
20232;SDS011;37438;55.674;13.074;2023-04-25T04:47:49;18.90;;;5.35;;
20232;SDS011;37438;55.674;13.074;2023-04-25T04:51:09;21.00;;;3.83;;
20232;SDS011;37438;55.674;13.074;2023-04-25T04:54:40;14.25;;;4.28;;
20232;SDS011;37438;55.674;13.074;2023-04-25T04:57:51;15.45;;;4.32;;
20232;SDS011;37438;55.674;13.074;2023-04-25T05:01:16;16.60;;;3.45;;
20232;SDS011;37438;55.674;13.074;2023-04-25T05:04:50;22.52;;;6.35;;
20232;SDS011;37438;55.674;13.074;2023-04-25T05:08:24;18.10;;;4.75;;
20232;SDS011;37438;55.674;13.074;2023-04-25T05:11:46;14.10;;;3.58;;
20232;SDS011;37438;55.674;13.074;2023-04-25T05:15:15;23.60;;;6.57;;
20232;SDS011;37438;55.674;13.074;2023-04-25T05:18:49;16.63;;;3.53;;
20232;SDS011;37438;55.674;13.074;2023-04-25T05:22:29;14.82;;;2.78;;
20232;SDS011;37438;55.674;13.074;2023-04-25T05:25:54;16.00;;;4.07;;
20232;SDS011;37438;55.674;13.074;2023-04-25T05:29:17;11.88;;;3.53;;
20232;SDS011;37438;55.674;13.074;2023-04-25T05:32:36;18.35;;;3.75;;
20232;SDS011;37438;55.674;13.074;2023-04-25T05:35:41;21.58;;;4.03;;
20232;SDS011;37438;55.674;13.074;2023-04-25T05:38:47;17.27;;;4.35;;
20232;SDS011;37438;55.674;13.074;2023-04-25T05:41:57;13.00;;;4.25;;
20232;SDS011;37438;55.674;13.074;2023-04-25T05:45:21;18.55;;;3.92;;
20232;SDS011;37438;55.674;13.074;2023-04-25T05:48:48;16.67;;;3.75;;
20232;SDS011;37438;55.674;13.074;2023-04-25T05:52:08;17.83;;;5.05;;
20232;SDS011;37438;55.674;13.074;2023-04-25T05:55:22;20.25;;;4.68;;
20232;SDS011;37438;55.674;13.074;2023-04-25T06:01:34;19.48;;;5.05;;
20232;SDS011;37438;55.674;13.074;2023-04-25T06:04:38;15.05;;;4.53;;
20232;SDS011;37438;55.674;13.074;2023-04-25T06:07:43;11.98;;;4.55;;
20232;SDS011;37438;55.674;13.074;2023-04-25T06:10:48;17.23;;;5.20;;
20232;SDS011;37438;55.674;13.074;2023-04-25T06:13:52;25.75;;;5.68;;
20232;SDS011;37438;55.674;13.074;2023-04-25T06:16:58;14.77;;;4.93;;
20232;SDS011;37438;55.674;13.074;2023-04-25T06:20:03;20.20;;;5.65;;
20232;SDS011;37438;55.674;13.074;2023-04-25T06:23:09;22.23;;;5.57;;
20232;SDS011;37438;55.674;13.074;2023-04-25T06:26:27;19.85;;;5.93;;
20232;SDS011;37438;55.674;13.074;2023-04-25T06:29:31;14.85;;;4.75;;
20232;SDS011;37438;55.674;13.074;2023-04-25T06:32:36;19.63;;;4.63;;
20232;SDS011;37438;55.674;13.074;2023-04-25T06:35:40;21.73;;;4.57;;
20232;SDS011;37438;55.674;13.074;2023-04-25T06:38:48;15.00;;;4.68;;
20232;SDS011;37438;55.674;13.074;2023-04-25T06:41:53;10.02;;;3.40;;
20232;SDS011;37438;55.674;13.074;2023-04-25T06:45:16;28.92;;;5.85;;
20232;SDS011;37438;55.674;13.074;2023-04-25T06:48:21;26.10;;;5.18;;
20232;SDS011;37438;55.674;13.074;2023-04-25T06:51:26;16.90;;;4.18;;
20232;SDS011;37438;55.674;13.074;2023-04-25T06:54:33;21.38;;;4.63;;
20232;SDS011;37438;55.674;13.074;2023-04-25T06:57:46;15.00;;;5.22;;
20232;SDS011;37438;55.674;13.074;2023-04-25T07:01:11;22.42;;;4.53;;
20232;SDS011;37438;55.674;13.074;2023-04-25T07:04:16;21.77;;;4.75;;
20232;SDS011;37438;55.674;13.074;2023-04-25T07:07:32;27.95;;;4.78;;
20232;SDS011;37438;55.674;13.074;2023-04-25T07:10:37;19.73;;;5.20;;
20232;SDS011;37438;55.674;13.074;2023-04-25T07:13:41;36.33;;;6.15;;
20232;SDS011;37438;55.674;13.074;2023-04-25T07:16:45;32.17;;;6.20;;
20232;SDS011;37438;55.674;13.074;2023-04-25T07:19:50;20.15;;;5.03;;
20232;SDS011;37438;55.674;13.074;2023-04-25T07:22:55;28.65;;;6.88;;
20232;SDS011;37438;55.674;13.074;2023-04-25T07:26:00;29.52;;;6.68;;
20232;SDS011;37438;55.674;13.074;2023-04-25T07:29:06;21.23;;;6.65;;
20232;SDS011;37438;55.674;13.074;2023-04-25T07:32:10;27.58;;;6.57;;
20232;SDS011;37438;55.674;13.074;2023-04-25T07:35:19;29.88;;;6.60;;
20232;SDS011;37438;55.674;13.074;2023-04-25T07:38:24;23.05;;;5.25;;
20232;SDS011;37438;55.674;13.074;2023-04-25T07:41:29;28.25;;;6.10;;
20232;SDS011;37438;55.674;13.074;2023-04-25T07:44:33;28.88;;;5.70;;
20232;SDS011;37438;55.674;13.074;2023-04-25T07:47:43;31.38;;;6.18;;
20232;SDS011;37438;55.674;13.074;2023-04-25T07:50:48;25.50;;;5.45;;
20232;SDS011;37438;55.674;13.074;2023-04-25T07:53:53;28.50;;;6.38;;
20232;SDS011;37438;55.674;13.074;2023-04-25T07:56:58;20.27;;;5.47;;
20232;SDS011;37438;55.674;13.074;2023-04-25T08:00:06;34.13;;;5.93;;
20232;SDS011;37438;55.674;13.074;2023-04-25T08:03:16;32.35;;;6.07;;
20232;SDS011;37438;55.674;13.074;2023-04-25T08:06:21;31.13;;;7.18;;
20232;SDS011;37438;55.674;13.074;2023-04-25T08:09:35;23.08;;;5.25;;
20232;SDS011;37438;55.674;13.074;2023-04-25T08:12:44;30.40;;;6.93;;
20232;SDS011;37438;55.674;13.074;2023-04-25T08:15:48;30.30;;;8.40;;
20232;SDS011;37438;55.674;13.074;2023-04-25T08:18:54;29.20;;;7.00;;
20232;SDS011;37438;55.674;13.074;2023-04-25T08:21:59;31.85;;;5.15;;
20232;SDS011;37438;55.674;13.074;2023-04-25T08:25:12;27.45;;;5.97;;
20232;SDS011;37438;55.674;13.074;2023-04-25T08:28:17;29.85;;;5.38;;
20232;SDS011;37438;55.674;13.074;2023-04-25T08:31:23;18.27;;;4.93;;
20232;SDS011;37438;55.674;13.074;2023-04-25T08:34:36;27.23;;;7.93;;
20232;SDS011;37438;55.674;13.074;2023-04-25T08:37:43;28.00;;;6.10;;
20232;SDS011;37438;55.674;13.074;2023-04-25T08:40:50;29.00;;;5.38;;
20232;SDS011;37438;55.674;13.074;2023-04-25T08:43:56;27.33;;;5.88;;
20232;SDS011;37438;55.674;13.074;2023-04-25T08:47:04;31.25;;;6.35;;
20232;SDS011;37438;55.674;13.074;2023-04-25T08:50:16;26.33;;;5.15;;
20232;SDS011;37438;55.674;13.074;2023-04-25T08:53:23;17.50;;;5.22;;
20232;SDS011;37438;55.674;13.074;2023-04-25T08:56:33;33.03;;;7.30;;
20232;SDS011;37438;55.674;13.074;2023-04-25T08:59:39;26.55;;;4.50;;
20232;SDS011;37438;55.674;13.074;2023-04-25T09:02:48;26.92;;;5.55;;
20232;SDS011;37438;55.674;13.074;2023-04-25T09:05:54;63.60;;;9.73;;
20232;SDS011;37438;55.674;13.074;2023-04-25T09:09:01;24.67;;;5.43;;
20232;SDS011;37438;55.674;13.074;2023-04-25T09:12:09;31.85;;;5.53;;
20232;SDS011;37438;55.674;13.074;2023-04-25T09:15:14;36.65;;;6.03;;
20232;SDS011;37438;55.674;13.074;2023-04-25T09:18:40;28.63;;;4.90;;
20232;SDS011;37438;55.674;13.074;2023-04-25T09:21:55;19.67;;;4.32;;
20232;SDS011;37438;55.674;13.074;2023-04-25T09:25:11;28.05;;;6.07;;
20232;SDS011;37438;55.674;13.074;2023-04-25T09:28:22;28.50;;;5.60;;
20232;SDS011;37438;55.674;13.074;2023-04-25T09:31:35;27.67;;;5.53;;
20232;SDS011;37438;55.674;13.074;2023-04-25T09:34:45;20.85;;;5.57;;
20232;SDS011;37438;55.674;13.074;2023-04-25T09:37:55;28.98;;;5.53;;
20232;SDS011;37438;55.674;13.074;2023-04-25T09:41:37;28.73;;;5.97;;
20232;SDS011;37438;55.674;13.074;2023-04-25T09:44:46;26.70;;;5.63;;
20232;SDS011;37438;55.674;13.074;2023-04-25T09:47:55;26.05;;;5.25;;
20232;SDS011;37438;55.674;13.074;2023-04-25T09:51:09;26.00;;;5.10;;
20232;SDS011;37438;55.674;13.074;2023-04-25T09:54:15;31.70;;;5.20;;
20232;SDS011;37438;55.674;13.074;2023-04-25T09:57:24;18.55;;;4.25;;
20232;SDS011;37438;55.674;13.074;2023-04-25T10:00:32;32.35;;;4.63;;
20232;SDS011;37438;55.674;13.074;2023-04-25T10:03:45;19.58;;;5.93;;
20232;SDS011;37438;55.674;13.074;2023-04-25T10:07:14;27.60;;;5.60;;
20232;SDS011;37438;55.674;13.074;2023-04-25T10:10:21;19.15;;;3.85;;
20232;SDS011;37438;55.674;13.074;2023-04-25T10:13:29;24.25;;;5.18;;
20232;SDS011;37438;55.674;13.074;2023-04-25T10:16:34;34.80;;;4.75;;
20232;SDS011;37438;55.674;13.074;2023-04-25T10:19:39;26.38;;;4.05;;
20232;SDS011;37438;55.674;13.074;2023-04-25T10:22:45;19.45;;;4.30;;
20232;SDS011;37438;55.674;13.074;2023-04-25T10:25:52;22.55;;;5.28;;
20232;SDS011;37438;55.674;13.074;2023-04-25T10:28:58;20.42;;;4.30;;
20232;SDS011;37438;55.674;13.074;2023-04-25T10:32:07;22.20;;;3.85;;
20232;SDS011;37438;55.674;13.074;2023-04-25T10:35:12;27.40;;;4.53;;
20232;SDS011;37438;55.674;13.074;2023-04-25T10:38:20;22.70;;;4.78;;
20232;SDS011;37438;55.674;13.074;2023-04-25T10:41:24;28.02;;;4.43;;
20232;SDS011;37438;55.674;13.074;2023-04-25T10:44:29;28.00;;;5.63;;
20232;SDS011;37438;55.674;13.074;2023-04-25T10:47:35;22.35;;;3.67;;
20232;SDS011;37438;55.674;13.074;2023-04-25T10:50:41;18.42;;;3.22;;
20232;SDS011;37438;55.674;13.074;2023-04-25T10:53:46;16.60;;;5.15;;
20232;SDS011;37438;55.674;13.074;2023-04-25T10:56:58;20.63;;;3.50;;
20232;SDS011;37438;55.674;13.074;2023-04-25T11:00:07;19.77;;;4.45;;
20232;SDS011;37438;55.674;13.074;2023-04-25T11:03:17;19.63;;;3.80;;
20232;SDS011;37438;55.674;13.074;2023-04-25T11:06:34;22.20;;;4.95;;
20232;SDS011;37438;55.674;13.074;2023-04-25T11:10:00;32.35;;;5.05;;
20232;SDS011;37438;55.674;13.074;2023-04-25T11:13:07;18.83;;;3.33;;
20232;SDS011;37438;55.674;13.074;2023-04-25T11:16:11;19.38;;;4.45;;
20232;SDS011;37438;55.674;13.074;2023-04-25T11:19:27;20.48;;;4.10;;
20232;SDS011;37438;55.674;13.074;2023-04-25T11:22:32;17.25;;;3.03;;
20232;SDS011;37438;55.674;13.074;2023-04-25T11:25:37;19.17;;;3.72;;
20232;SDS011;37438;55.674;13.074;2023-04-25T11:28:44;15.90;;;3.70;;
20232;SDS011;37438;55.674;13.074;2023-04-25T11:31:50;20.42;;;3.30;;
20232;SDS011;37438;55.674;13.074;2023-04-25T11:34:55;23.17;;;4.57;;
20232;SDS011;37438;55.674;13.074;2023-04-25T11:37:59;24.52;;;2.70;;
20232;SDS011;37438;55.674;13.074;2023-04-25T11:41:05;16.90;;;3.03;;
20232;SDS011;37438;55.674;13.074;2023-04-25T11:44:09;14.25;;;4.05;;
20232;SDS011;37438;55.674;13.074;2023-04-25T11:47:14;28.13;;;4.32;;
20232;SDS011;37438;55.674;13.074;2023-04-25T11:50:18;20.50;;;3.60;;
20232;SDS011;37438;55.674;13.074;2023-04-25T11:53:23;21.00;;;4.13;;
20232;SDS011;37438;55.674;13.074;2023-04-25T11:56:28;21.30;;;3.45;;
20232;SDS011;37438;55.674;13.074;2023-04-25T11:59:32;10.20;;;2.57;;
20232;SDS011;37438;55.674;13.074;2023-04-25T12:02:37;22.30;;;4.70;;
20232;SDS011;37438;55.674;13.074;2023-04-25T12:05:44;19.98;;;3.67;;
20232;SDS011;37438;55.674;13.074;2023-04-25T12:09:03;22.02;;;4.20;;
20232;SDS011;37438;55.674;13.074;2023-04-25T12:12:09;15.98;;;2.95;;
20232;SDS011;37438;55.674;13.074;2023-04-25T12:15:17;14.88;;;3.47;;
20232;SDS011;37438;55.674;13.074;2023-04-25T12:18:26;18.80;;;3.88;;
20232;SDS011;37438;55.674;13.074;2023-04-25T12:21:31;20.90;;;4.00;;
20232;SDS011;37438;55.674;13.074;2023-04-25T12:24:44;28.38;;;3.83;;
20232;SDS011;37438;55.674;13.074;2023-04-25T12:27:49;22.15;;;4.07;;
20232;SDS011;37438;55.674;13.074;2023-04-25T12:34:02;18.27;;;3.28;;
20232;SDS011;37438;55.674;13.074;2023-04-25T12:37:07;17.92;;;3.20;;
20232;SDS011;37438;55.674;13.074;2023-04-25T12:40:11;8.70;;;2.33;;
20232;SDS011;37438;55.674;13.074;2023-04-25T12:43:15;15.57;;;2.23;;
20232;SDS011;37438;55.674;13.074;2023-04-25T12:46:21;19.02;;;2.92;;
20232;SDS011;37438;55.674;13.074;2023-04-25T12:49:27;13.43;;;2.95;;
20232;SDS011;37438;55.674;13.074;2023-04-25T12:52:31;23.00;;;4.88;;
20232;SDS011;37438;55.674;13.074;2023-04-25T12:55:36;12.82;;;3.28;;
20232;SDS011;37438;55.674;13.074;2023-04-25T12:58:40;15.38;;;3.85;;
20232;SDS011;37438;55.674;13.074;2023-04-25T13:01:46;17.38;;;3.53;;
20232;SDS011;37438;55.674;13.074;2023-04-25T13:07:55;16.63;;;2.53;;
20232;SDS011;37438;55.674;13.074;2023-04-25T13:11:00;14.18;;;3.67;;
20232;SDS011;37438;55.674;13.074;2023-04-25T13:14:04;14.48;;;4.35;;
20232;SDS011;37438;55.674;13.074;2023-04-25T13:17:09;22.33;;;2.92;;
20232;SDS011;37438;55.674;13.074;2023-04-25T13:20:14;18.75;;;2.85;;
20232;SDS011;37438;55.674;13.074;2023-04-25T13:23:19;8.82;;;2.83;;
20232;SDS011;37438;55.674;13.074;2023-04-25T13:26:25;12.45;;;3.75;;
20232;SDS011;37438;55.674;13.074;2023-04-25T13:29:30;9.15;;;2.20;;
20232;SDS011;37438;55.674;13.074;2023-04-25T13:35:40;7.15;;;1.77;;
20232;SDS011;37438;55.674;13.074;2023-04-25T13:38:45;15.00;;;3.35;;
20232;SDS011;37438;55.674;13.074;2023-04-25T13:41:52;9.63;;;3.35;;
20232;SDS011;37438;55.674;13.074;2023-04-25T13:44:56;6.87;;;1.80;;
20232;SDS011;37438;55.674;13.074;2023-04-25T13:48:00;12.70;;;2.90;;
20232;SDS011;37438;55.674;13.074;2023-04-25T13:51:05;8.60;;;1.75;;
20232;SDS011;37438;55.674;13.074;2023-04-25T13:57:14;9.82;;;2.03;;
20232;SDS011;37438;55.674;13.074;2023-04-25T14:00:19;6.30;;;1.88;;
20232;SDS011;37438;55.674;13.074;2023-04-25T14:03:25;11.20;;;2.20;;
20232;SDS011;37438;55.674;13.074;2023-04-25T14:09:35;8.00;;;2.05;;
20232;SDS011;37438;55.674;13.074;2023-04-25T14:12:39;7.38;;;1.58;;
20232;SDS011;37438;55.674;13.074;2023-04-25T14:15:44;8.95;;;2.55;;
20232;SDS011;37438;55.674;13.074;2023-04-25T14:18:48;11.65;;;2.72;;
20232;SDS011;37438;55.674;13.074;2023-04-25T14:21:53;12.65;;;3.00;;
20232;SDS011;37438;55.674;13.074;2023-04-25T14:24:57;10.82;;;2.05;;
20232;SDS011;37438;55.674;13.074;2023-04-25T14:28:02;11.50;;;2.38;;
20232;SDS011;37438;55.674;13.074;2023-04-25T14:31:06;8.30;;;1.88;;
20232;SDS011;37438;55.674;13.074;2023-04-25T14:34:11;14.20;;;2.42;;
20232;SDS011;37438;55.674;13.074;2023-04-25T14:37:15;20.58;;;3.00;;
20232;SDS011;37438;55.674;13.074;2023-04-25T14:40:20;15.18;;;2.72;;
20232;SDS011;37438;55.674;13.074;2023-04-25T14:43:26;14.02;;;3.42;;
20232;SDS011;37438;55.674;13.074;2023-04-25T14:46:31;11.43;;;2.20;;
20232;SDS011;37438;55.674;13.074;2023-04-25T14:49:35;10.52;;;2.03;;
20232;SDS011;37438;55.674;13.074;2023-04-25T14:52:40;12.50;;;2.35;;
20232;SDS011;37438;55.674;13.074;2023-04-25T14:55:44;13.88;;;3.22;;
20232;SDS011;37438;55.674;13.074;2023-04-25T14:58:49;9.80;;;2.10;;
20232;SDS011;37438;55.674;13.074;2023-04-25T15:01:53;12.18;;;2.40;;
20232;SDS011;37438;55.674;13.074;2023-04-25T15:05:02;9.88;;;1.95;;
20232;SDS011;37438;55.674;13.074;2023-04-25T15:08:07;14.50;;;2.85;;
20232;SDS011;37438;55.674;13.074;2023-04-25T15:11:12;6.13;;;1.98;;
20232;SDS011;37438;55.674;13.074;2023-04-25T15:14:17;12.18;;;2.67;;
20232;SDS011;37438;55.674;13.074;2023-04-25T15:17:21;17.15;;;2.25;;
20232;SDS011;37438;55.674;13.074;2023-04-25T15:20:26;5.45;;;1.60;;
20232;SDS011;37438;55.674;13.074;2023-04-25T15:26:35;14.30;;;2.58;;
20232;SDS011;37438;55.674;13.074;2023-04-25T15:29:39;9.88;;;1.80;;
20232;SDS011;37438;55.674;13.074;2023-04-25T15:32:44;21.55;;;4.35;;
20232;SDS011;37438;55.674;13.074;2023-04-25T15:35:50;10.07;;;2.15;;
20232;SDS011;37438;55.674;13.074;2023-04-25T15:38:54;11.98;;;2.28;;
20232;SDS011;37438;55.674;13.074;2023-04-25T15:41:59;12.30;;;2.50;;
20232;SDS011;37438;55.674;13.074;2023-04-25T15:45:06;11.13;;;2.75;;
20232;SDS011;37438;55.674;13.074;2023-04-25T15:48:12;11.05;;;2.28;;
20232;SDS011;37438;55.674;13.074;2023-04-25T15:51:16;11.82;;;3.40;;
20232;SDS011;37438;55.674;13.074;2023-04-25T15:54:21;12.15;;;2.50;;
20232;SDS011;37438;55.674;13.074;2023-04-25T15:57:26;7.57;;;1.88;;
20232;SDS011;37438;55.674;13.074;2023-04-25T16:00:30;10.93;;;2.47;;
20232;SDS011;37438;55.674;13.074;2023-04-25T16:03:38;5.25;;;1.48;;
20232;SDS011;37438;55.674;13.074;2023-04-25T16:09:47;6.18;;;2.22;;
20232;SDS011;37438;55.674;13.074;2023-04-25T16:12:51;8.52;;;1.45;;
20232;SDS011;37438;55.674;13.074;2023-04-25T16:19:01;10.05;;;1.65;;
20232;SDS011;37438;55.674;13.074;2023-04-25T16:22:05;8.52;;;1.42;;
20232;SDS011;37438;55.674;13.074;2023-04-25T16:25:12;5.35;;;1.30;;
20232;SDS011;37438;55.674;13.074;2023-04-25T16:28:16;5.38;;;1.48;;
20232;SDS011;37438;55.674;13.074;2023-04-25T16:31:21;16.90;;;2.33;;
20232;SDS011;37438;55.674;13.074;2023-04-25T16:34:25;11.02;;;1.92;;
20232;SDS011;37438;55.674;13.074;2023-04-25T16:37:30;12.75;;;1.50;;
20232;SDS011;37438;55.674;13.074;2023-04-25T16:40:35;6.63;;;1.60;;
20232;SDS011;37438;55.674;13.074;2023-04-25T16:43:39;8.65;;;1.83;;
20232;SDS011;37438;55.674;13.074;2023-04-25T16:46:44;11.43;;;2.38;;
20232;SDS011;37438;55.674;13.074;2023-04-25T16:49:48;6.13;;;1.88;;
20232;SDS011;37438;55.674;13.074;2023-04-25T16:52:53;13.93;;;3.20;;
20232;SDS011;37438;55.674;13.074;2023-04-25T16:55:58;9.35;;;1.85;;
20232;SDS011;37438;55.674;13.074;2023-04-25T16:59:03;14.85;;;2.85;;
20232;SDS011;37438;55.674;13.074;2023-04-25T17:02:09;11.77;;;2.63;;
20232;SDS011;37438;55.674;13.074;2023-04-25T17:05:15;8.27;;;1.98;;
20232;SDS011;37438;55.674;13.074;2023-04-25T17:08:19;10.85;;;2.38;;
20232;SDS011;37438;55.674;13.074;2023-04-25T17:11:25;13.50;;;2.63;;
20232;SDS011;37438;55.674;13.074;2023-04-25T17:14:30;22.00;;;2.95;;
20232;SDS011;37438;55.674;13.074;2023-04-25T17:17:36;19.42;;;3.92;;
20232;SDS011;37438;55.674;13.074;2023-04-25T17:20:40;14.88;;;2.85;;
20232;SDS011;37438;55.674;13.074;2023-04-25T17:23:45;14.15;;;2.67;;
20232;SDS011;37438;55.674;13.074;2023-04-25T17:26:50;11.20;;;2.33;;
20232;SDS011;37438;55.674;13.074;2023-04-25T17:29:54;9.75;;;2.88;;
20232;SDS011;37438;55.674;13.074;2023-04-25T17:36:04;19.23;;;3.30;;
20232;SDS011;37438;55.674;13.074;2023-04-25T17:39:10;18.15;;;3.75;;
20232;SDS011;37438;55.674;13.074;2023-04-25T17:42:14;14.75;;;3.85;;
20232;SDS011;37438;55.674;13.074;2023-04-25T17:45:19;17.27;;;3.85;;
20232;SDS011;37438;55.674;13.074;2023-04-25T17:51:28;11.10;;;3.40;;
20232;SDS011;37438;55.674;13.074;2023-04-25T17:54:34;28.48;;;5.35;;
20232;SDS011;37438;55.674;13.074;2023-04-25T17:57:38;13.40;;;3.10;;
20232;SDS011;37438;55.674;13.074;2023-04-25T18:00:43;21.80;;;3.95;;
20232;SDS011;37438;55.674;13.074;2023-04-25T18:03:48;23.17;;;3.83;;
20232;SDS011;37438;55.674;13.074;2023-04-25T18:06:53;22.42;;;5.22;;
20232;SDS011;37438;55.674;13.074;2023-04-25T18:13:03;12.33;;;3.33;;
20232;SDS011;37438;55.674;13.074;2023-04-25T18:16:08;23.58;;;3.75;;
20232;SDS011;37438;55.674;13.074;2023-04-25T18:22:24;14.73;;;3.80;;
20232;SDS011;37438;55.674;13.074;2023-04-25T18:25:28;23.08;;;3.85;;
20232;SDS011;37438;55.674;13.074;2023-04-25T18:28:32;29.43;;;4.50;;
20232;SDS011;37438;55.674;13.074;2023-04-25T18:31:37;20.03;;;3.43;;
20232;SDS011;37438;55.674;13.074;2023-04-25T18:34:42;17.58;;;2.95;;
20232;SDS011;37438;55.674;13.074;2023-04-25T18:37:49;16.92;;;3.33;;
20232;SDS011;37438;55.674;13.074;2023-04-25T18:48:27;15.77;;;3.33;;
20232;SDS011;37438;55.674;13.074;2023-04-25T18:51:31;25.50;;;4.97;;
20232;SDS011;37438;55.674;13.074;2023-04-25T18:54:36;22.70;;;4.10;;
20232;SDS011;37438;55.674;13.074;2023-04-25T18:57:41;22.73;;;3.60;;
20232;SDS011;37438;55.674;13.074;2023-04-25T19:00:46;12.73;;;3.53;;
20232;SDS011;37438;55.674;13.074;2023-04-25T19:03:52;21.08;;;4.38;;
20232;SDS011;37438;55.674;13.074;2023-04-25T19:07:00;13.70;;;2.20;;
20232;SDS011;37438;55.674;13.074;2023-04-25T19:10:05;23.73;;;2.90;;
20232;SDS011;37438;55.674;13.074;2023-04-25T19:13:11;16.45;;;2.75;;
20232;SDS011;37438;55.674;13.074;2023-04-25T19:16:16;16.35;;;3.60;;
20232;SDS011;37438;55.674;13.074;2023-04-25T19:19:22;22.63;;;2.53;;
20232;SDS011;37438;55.674;13.074;2023-04-25T19:22:26;23.58;;;3.17;;
20232;SDS011;37438;55.674;13.074;2023-04-25T19:25:32;20.30;;;2.67;;
20232;SDS011;37438;55.674;13.074;2023-04-25T19:28:36;15.52;;;2.78;;